Etusivu
METAR-TAF:

METAR-TAF

Lentoasemat :

Brevoort Island, Nunavut, Kanada

Leveyspiiri: 63-20N, Pituuspiiri: 064-09W, korkeus merenpinnasta: 367 m

Tämänhetkinen sää

Tämä raportti tehtiin 11 minuuttia sitten, kello 11.00 UTC
Tuuli 22 kn koillisesta
Lämpötila -11°C
Kosteus 92%
Ilmanpaine 997 hPa
Hajonneita pilviä 500 ft:n korkeudessa
Pilvistä 900 ft:n korkeudessa

METAR: CWOB 061100Z AUTO 04022KT ////SM BKN005 OVC009 M11/M12 A2945

Aika: 06:11 (11:11 UTC)


TAF: puuttuu

Säähavainnot ja -ennusteet yli 4000 lentoasemalta (METAR- ja TAF-raportit).

Käytössä olevat sääasemat on merkitty karttaan keltaisilla ja punaisilla pisteillä.

Aseta hiiri pisteen päälle nähdäksesi sääaseman nimen.

Klikkaa sitten nähdäksesi säähavainnot ja -ennusteet.

Kartan vaihtaminen: klikkaa mustalla rastilla varustettuja vihreitä pisteitä, niin voit zoomata sisään; viivalla varustettua vihreää pistettä, niin voit zoomata ulos tai vihreitä nuolia, niin pääset viereisille kartoille.


METAR-TAF: